createdAt,value
2022-08-08T00:02:04.007Z,99043.03
2022-08-08T00:04:28.067Z,99037.22
2022-08-08T00:07:12.427Z,99032.53
2022-08-08T00:10:04.243Z,99033.91
2022-08-08T00:12:34.753Z,99035.56
2022-08-08T00:15:17.605Z,99033.06
2022-08-08T00:18:03.320Z,99031.44
2022-08-08T00:20:34.019Z,99033.63
2022-08-08T00:23:08.715Z,99032.53
2022-08-08T00:25:46.755Z,99022.03
2022-08-08T00:28:36.189Z,99034.75
2022-08-08T00:32:20.753Z,99024.78
2022-08-08T00:35:10.419Z,99025.63
2022-08-08T00:38:04.562Z,99028.69
2022-08-08T00:41:10.839Z,99030.31
2022-08-08T00:43:55.986Z,99027.03
2022-08-08T00:46:55.987Z,99033.38
2022-08-08T00:49:32.304Z,99027.03
2022-08-08T00:52:05.930Z,99021.50
2022-08-08T00:54:45.757Z,99020.66
2022-08-08T00:57:34.151Z,99020.66
2022-08-08T01:00:06.648Z,99019.00
2022-08-08T01:03:59.948Z,99022.06
2022-08-08T01:06:27.606Z,99022.06
2022-08-08T01:09:36.069Z,99029.22
2022-08-08T01:12:03.166Z,99020.41
2022-08-08T01:14:54.600Z,99024.00
2022-08-08T01:17:59.151Z,99030.34
2022-08-08T01:20:50.796Z,99028.41
2022-08-08T01:24:02.697Z,99023.16
2022-08-08T01:26:51.447Z,99025.09
2022-08-08T01:29:59.838Z,99027.03
2022-08-08T01:33:23.772Z,99023.44
2022-08-08T01:36:30.719Z,99019.84
2022-08-08T01:39:24.314Z,99016.22
2022-08-08T01:42:37.591Z,99024.81
2022-08-08T01:45:23.585Z,99022.06
2022-08-08T01:48:23.772Z,99022.31
2022-08-08T01:51:32.222Z,99024.00
2022-08-08T01:55:19.105Z,99031.19
2022-08-08T01:57:17.160Z,99027.84
2022-08-08T02:00:12.896Z,99023.16
2022-08-08T02:03:54.964Z,99021.50
2022-08-08T02:06:32.526Z,99035.03
2022-08-08T02:09:17.602Z,99038.06
2022-08-08T02:11:59.117Z,99032.53
2022-08-08T02:14:55.065Z,99032.53
2022-08-08T02:17:43.032Z,99041.94
2022-08-08T02:21:01.397Z,99037.53
2022-08-08T02:23:31.731Z,99029.50
2022-08-08T02:26:10.883Z,99031.44
2022-08-08T02:28:48.198Z,99029.78
2022-08-08T02:31:57.878Z,99036.97
2022-08-08T02:34:33.157Z,99040.81
2022-08-08T02:37:58.332Z,99045.25
2022-08-08T02:41:58.145Z,99035.31
2022-08-08T02:44:38.507Z,99041.97
2022-08-08T02:47:47.161Z,99036.44
2022-08-08T02:50:40.264Z,99038.63
2022-08-08T02:53:36.066Z,99038.63
2022-08-08T02:56:24.594Z,99028.69
2022-08-08T02:58:54.505Z,99038.91
2022-08-08T03:01:47.391Z,99035.31
2022-08-08T03:05:03.806Z,99038.91
2022-08-08T03:07:58.038Z,99034.19
2022-08-08T03:10:37.028Z,99044.41
2022-08-08T03:16:00.165Z,99041.13
2022-08-08T03:16:58.014Z,99045.56
2022-08-08T03:19:31.072Z,99047.47
2022-08-08T03:22:00.395Z,99036.44
2022-08-08T03:24:28.690Z,99039.19
2022-08-08T03:27:27.560Z,99037.53
2022-08-08T03:29:57.854Z,99044.16
2022-08-08T03:32:47.305Z,99036.13
2022-08-08T03:35:24.779Z,99048.00
2022-08-08T03:38:53.933Z,99045.25
2022-08-08T03:40:39.690Z,99048.00
2022-08-08T03:43:16.767Z,99049.94
2022-08-08T03:46:04.926Z,99046.38
2022-08-08T03:49:09.755Z,99048.00
2022-08-08T03:51:40.424Z,99053.00
2022-08-08T03:54:15.556Z,99057.44
2022-08-08T03:58:35.414Z,99065.72
2022-08-08T04:00:02.453Z,99059.34
2022-08-08T04:02:51.798Z,99060.19
2022-08-08T04:05:28.024Z,99067.91
2022-08-08T04:07:55.635Z,99057.69
2022-08-08T04:10:22.791Z,99061.81
2022-08-08T04:12:49.968Z,99063.47
2022-08-08T04:15:17.140Z,99072.84
2022-08-08T04:17:59.407Z,99067.34
2022-08-08T04:20:28.275Z,99065.69
2022-08-08T04:22:58.260Z,99060.19
2022-08-08T04:25:30.228Z,99056.28
2022-08-08T04:28:35.562Z,99075.63
2022-08-08T04:30:48.454Z,99073.69
2022-08-08T04:33:15.968Z,99065.69
2022-08-08T04:35:51.380Z,99069.00
2022-08-08T04:38:21.196Z,99068.16
2022-08-08T04:40:53.921Z,99069.00
2022-08-08T04:43:31.755Z,99080.03
2022-08-08T04:46:10.157Z,99076.75
2022-08-08T04:48:37.264Z,99076.75
2022-08-08T04:51:04.492Z,99088.88
2022-08-08T04:54:27.124Z,99086.97
2022-08-08T04:56:18.645Z,99093.03
2022-08-08T04:58:46.140Z,99088.63
2022-08-08T05:01:15.488Z,99082.28
2022-08-08T05:04:10.110Z,99086.97
2022-08-08T05:06:29.770Z,99085.28
2022-08-08T05:09:02.669Z,99090.56
2022-08-08T05:11:39.028Z,99083.91
2022-08-08T05:14:08.540Z,99083.91
2022-08-08T05:16:54.930Z,99078.38
2022-08-08T05:20:10.794Z,99097.72
2022-08-08T05:22:13.449Z,99096.06
2022-08-08T05:24:48.846Z,99089.44
2022-08-08T05:27:16.906Z,99099.69
2022-08-08T05:29:43.992Z,99101.59
2022-08-08T05:32:12.814Z,99096.06
2022-08-08T05:34:49.510Z,99098.00
2022-08-08T05:37:39.112Z,99090.56
2022-08-08T05:40:14.804Z,99093.31
2022-08-08T05:42:45.271Z,99091.09
2022-08-08T05:45:30.984Z,99095.25
2022-08-08T05:48:08.374Z,99093.31
2022-08-08T05:50:36.642Z,99092.19
2022-08-08T05:53:55.380Z,99085.88
2022-08-08T05:56:10.475Z,99092.19
2022-08-08T05:58:53.861Z,99095.78
2022-08-08T06:01:56.052Z,99099.69
2022-08-08T06:04:13.734Z,99100.47
2022-08-08T06:06:50.394Z,99106.00
2022-08-08T06:09:41.965Z,99100.47
2022-08-08T06:12:05.252Z,99111.53
2022-08-08T06:14:32.408Z,99114.84
2022-08-08T06:17:02.481Z,99114.59
2022-08-08T06:19:33.262Z,99105.47
2022-08-08T06:22:32.170Z,99107.13
2022-08-08T06:24:51.324Z,99107.13
2022-08-08T06:27:25.528Z,99111.81
2022-08-08T06:30:11.897Z,99112.66
2022-08-08T06:32:57.533Z,99107.13
2022-08-08T06:36:06.144Z,99107.13
2022-08-08T06:38:14.600Z,99110.69
2022-08-08T06:40:48.723Z,99106.00
2022-08-08T06:43:28.556Z,99115.97
2022-08-08T06:46:01.893Z,99111.28
2022-08-08T06:48:29.776Z,99115.97
2022-08-08T06:50:58.007Z,99117.63
2022-08-08T06:53:25.911Z,99116.53
2022-08-08T06:56:08.193Z,99102.72
2022-08-08T06:58:35.893Z,99110.72
2022-08-08T07:01:24.236Z,99110.72
2022-08-08T07:04:40.100Z,99106.00
2022-08-08T07:06:46.873Z,99116.81
2022-08-08T07:09:21.241Z,99117.06
2022-08-08T07:11:52.341Z,99113.19
2022-08-08T07:14:28.325Z,99117.91
2022-08-08T07:17:02.528Z,99115.13
2022-08-08T07:19:42.647Z,99118.72
2022-08-08T07:22:19.224Z,99111.53
2022-08-08T07:24:53.290Z,99111.53
2022-08-08T07:27:35.121Z,99112.09
2022-08-08T07:30:14.907Z,99112.09
2022-08-08T07:32:45.544Z,99109.34
2022-08-08T07:35:15.735Z,99116.53
2022-08-08T07:37:55.749Z,99116.53
2022-08-08T07:40:33.235Z,99114.03
2022-08-08T07:43:02.629Z,99114.88
2022-08-08T07:45:34.973Z,99126.75
2022-08-08T07:48:19.538Z,99124.81
2022-08-08T07:50:47.123Z,99124.00
2022-08-08T07:53:52.153Z,99131.16
2022-08-08T07:56:09.858Z,99133.09
2022-08-08T07:58:44.501Z,99121.22
2022-08-08T08:01:20.804Z,99128.38
2022-08-08T08:04:05.817Z,99130.34
2022-08-08T08:06:41.695Z,99137.50
2022-08-08T08:09:20.167Z,99140.28
2022-08-08T08:11:51.624Z,99140.28
2022-08-08T08:14:37.505Z,99137.25
2022-08-08T08:17:08.644Z,99131.72
2022-08-08T08:19:45.448Z,99138.06
2022-08-08T08:22:14.991Z,99137.25
2022-08-08T08:24:46.532Z,99144.44
2022-08-08T08:27:13.931Z,99141.66
2022-08-08T08:29:42.394Z,99148.03
2022-08-08T08:32:11.109Z,99142.50
2022-08-08T08:34:42.523Z,99135.84
2022-08-08T08:37:10.639Z,99135.03
2022-08-08T08:40:00.416Z,99138.59
2022-08-08T08:42:31.801Z,99144.72
2022-08-08T08:45:21.849Z,99138.09
2022-08-08T08:47:54.710Z,99151.91
2022-08-08T08:50:31.999Z,99142.50
2022-08-08T08:53:53.932Z,99151.59
2022-08-08T08:55:54.422Z,99139.44
2022-08-08T08:58:38.021Z,99147.47
2022-08-08T09:01:10.455Z,99143.88
2022-08-08T09:03:47.883Z,99148.31
2022-08-08T09:06:33.972Z,99153.53
2022-08-08T09:09:38.928Z,99149.97
2022-08-08T09:12:08.516Z,99145.25
2022-08-08T09:14:42.983Z,99146.91
2022-08-08T09:17:18.397Z,99137.53
2022-08-08T09:21:58.841Z,99143.06
2022-08-08T09:22:35.647Z,99139.19
2022-08-08T09:25:03.774Z,99143.59
2022-08-08T09:27:56.291Z,99141.66
2022-08-08T09:30:22.213Z,99149.94
2022-08-08T09:33:12.678Z,99151.63
2022-08-08T09:35:50.218Z,99150.78
2022-08-08T09:38:53.039Z,99154.38
2022-08-08T09:41:33.560Z,99143.06
2022-08-08T09:44:12.911Z,99154.13
2022-08-08T09:46:45.298Z,99153.28
2022-08-08T09:49:42.342Z,99148.28
2022-08-08T09:52:11.521Z,99149.13
2022-08-08T09:54:58.613Z,99150.78
2022-08-08T09:57:45.700Z,99138.91
2022-08-08T10:00:34.593Z,99152.47
2022-08-08T10:03:03.482Z,99145.25
2022-08-08T10:05:35.219Z,99144.16
2022-08-08T10:08:02.575Z,99142.25
2022-08-08T10:10:37.220Z,99142.25
2022-08-08T10:13:29.931Z,99137.53
2022-08-08T10:16:01.985Z,99143.91
2022-08-08T10:18:34.928Z,99142.78
2022-08-08T10:21:22.717Z,99138.06
2022-08-08T10:23:58.974Z,99139.19
2022-08-08T10:26:58.534Z,99134.47
2022-08-08T10:29:20.918Z,99127.03
2022-08-08T10:32:08.769Z,99135.91
2022-08-08T10:34:36.584Z,99133.16
2022-08-08T10:37:05.472Z,99133.16
2022-08-08T10:39:53.811Z,99133.97
2022-08-08T10:42:20.749Z,99130.09
2022-08-08T10:44:49.500Z,99134.81
2022-08-08T10:47:21.218Z,99133.69
2022-08-08T10:50:00.735Z,99130.91
2022-08-08T10:52:37.991Z,99130.91
2022-08-08T10:55:08.104Z,99130.91
2022-08-08T10:57:50.355Z,99129.81
2022-08-08T11:00:27.010Z,99121.53
2022-08-08T11:02:55.518Z,99125.13
2022-08-08T11:05:23.371Z,99117.66
2022-08-08T11:08:38.427Z,99125.97
2022-08-08T11:10:39.328Z,99126.50
2022-08-08T11:16:07.493Z,99131.75
2022-08-08T11:18:36.125Z,99124.28
2022-08-08T11:21:09.004Z,99124.28
2022-08-08T11:23:37.378Z,99129.25
2022-08-08T11:26:05.605Z,99123.72
2022-08-08T11:28:38.624Z,99121.81
2022-08-08T11:31:09.522Z,99109.91
2022-08-08T11:33:51.207Z,99117.94
2022-08-08T11:36:27.888Z,99118.78
2022-08-08T11:38:56.720Z,99113.78
2022-08-08T11:41:24.970Z,99112.16
2022-08-08T11:43:58.160Z,99111.00
2022-08-08T11:46:31.547Z,99102.72
2022-08-08T11:48:59.339Z,99112.69
2022-08-08T11:51:38.302Z,99118.78
2022-08-08T11:54:09.728Z,99109.38
2022-08-08T11:56:57.672Z,99106.63
2022-08-08T11:59:57.937Z,99094.44
2022-08-08T12:02:39.914Z,99106.31
2022-08-08T12:05:12.584Z,99107.16
2022-08-08T12:08:01.027Z,99107.97
2022-08-08T12:10:30.511Z,99104.94
2022-08-08T12:13:09.827Z,99088.34
2022-08-08T12:15:41.821Z,99081.69
2022-08-08T12:18:24.555Z,99105.47
2022-08-08T12:20:55.326Z,99102.72
2022-08-08T12:23:43.266Z,99107.16
2022-08-08T12:26:28.009Z,99112.66
2022-08-08T12:29:17.693Z,99106.88
2022-08-08T12:31:53.687Z,99106.88
2022-08-08T12:34:37.007Z,99106.88
2022-08-08T12:37:40.893Z,99106.88
2022-08-08T12:40:22.569Z,99099.94
2022-08-08T12:42:51.718Z,99092.75
2022-08-08T12:46:00.097Z,99089.72
2022-08-08T12:48:32.066Z,99076.16
2022-08-08T12:50:57.650Z,99076.72
2022-08-08T12:53:37.938Z,99083.09
2022-08-08T12:56:19.546Z,99093.84
2022-08-08T12:58:54.225Z,99094.69
2022-08-08T13:01:36.286Z,99089.16
2022-08-08T13:04:18.297Z,99097.19
2022-08-08T13:07:02.964Z,99083.09
2022-08-08T13:09:43.247Z,99082.25
2022-08-08T13:12:29.566Z,99072.03
2022-08-08T13:14:57.536Z,99080.00
2022-08-08T13:18:07.607Z,99073.66
2022-08-08T13:20:18.401Z,99073.13
2022-08-08T13:22:45.876Z,99080.00
2022-08-08T13:25:21.212Z,99074.22
2022-08-08T13:27:56.633Z,99064.81
2022-08-08T13:30:28.769Z,99070.59
2022-08-08T13:33:02.308Z,99068.34
2022-08-08T13:35:40.483Z,99064.50
2022-08-08T13:38:13.463Z,99056.75
2022-08-08T13:40:44.757Z,99058.38
2022-08-08T13:43:13.405Z,99064.75
2022-08-08T13:45:40.915Z,99062.53
2022-08-08T13:48:15.996Z,99064.47
2022-08-08T13:50:52.024Z,99063.38
2022-08-08T13:53:36.548Z,99065.84
2022-08-08T13:56:10.858Z,99068.91
2022-08-08T13:58:48.817Z,99076.06
2022-08-08T14:01:23.639Z,99058.34
2022-08-08T14:04:09.339Z,99060.03
2022-08-08T14:06:44.808Z,99068.88
2022-08-08T14:09:24.339Z,99070.28
2022-08-08T14:11:59.134Z,99063.34
2022-08-08T14:14:41.022Z,99067.50
2022-08-08T14:17:11.880Z,99063.88
2022-08-08T14:19:57.326Z,99066.34
2022-08-08T14:22:32.435Z,99066.06
2022-08-08T14:25:02.719Z,99057.50
2022-08-08T14:27:36.379Z,99066.91
2022-08-08T14:30:17.294Z,99058.31
2022-08-08T14:32:52.966Z,99058.31
2022-08-08T14:35:35.358Z,99055.56
2022-08-08T14:38:09.584Z,99053.31
2022-08-08T14:40:54.100Z,99058.56
2022-08-08T14:44:02.702Z,99056.63
2022-08-08T14:46:31.117Z,99056.06
2022-08-08T14:49:31.863Z,99051.91
2022-08-08T14:52:07.158Z,99054.09
2022-08-08T14:54:34.238Z,99064.06
2022-08-08T14:57:03.891Z,99056.88
2022-08-08T14:59:50.815Z,99062.41
2022-08-08T15:02:30.943Z,99062.13
2022-08-08T15:05:07.944Z,99055.47
2022-08-08T15:07:40.410Z,99061.81
2022-08-08T15:10:09.995Z,99060.72
2022-08-08T15:12:37.611Z,99062.66
2022-08-08T15:15:06.797Z,99069.84
2022-08-08T15:17:41.054Z,99055.19
2022-08-08T15:20:14.051Z,99062.38
2022-08-08T15:22:42.067Z,99069.84
2022-08-08T15:25:17.900Z,99065.16
2022-08-08T15:28:03.426Z,99058.78
2022-08-08T15:30:44.004Z,99057.13
2022-08-08T15:33:14.413Z,99057.94
2022-08-08T15:36:00.035Z,99060.44
2022-08-08T15:38:27.549Z,99064.31
2022-08-08T15:40:54.660Z,99064.31
2022-08-08T15:43:36.163Z,99069.03
2022-08-08T15:46:04.069Z,99065.41
2022-08-08T15:48:31.175Z,99066.53
2022-08-08T15:51:03.028Z,99065.69
2022-08-08T15:53:49.386Z,99063.22
2022-08-08T15:56:19.658Z,99067.09
2022-08-08T15:58:48.859Z,99068.22
2022-08-08T16:01:16.737Z,99072.09
2022-08-08T16:03:45.961Z,99065.75
2022-08-08T16:06:28.274Z,99068.50
2022-08-08T16:13:02.709Z,99063.78
2022-08-08T16:13:03.842Z,99069.31
2022-08-08T16:14:34.948Z,99073.22
2022-08-08T16:17:02.369Z,99077.09
2022-08-08T16:19:59.658Z,99076.25
2022-08-08T16:22:30.340Z,99080.97
2022-08-08T16:24:58.626Z,99067.13
2022-08-08T16:27:25.683Z,99079.31
2022-08-08T16:30:13.386Z,99076.53
2022-08-08T16:32:41.240Z,99066.59
2022-08-08T16:35:09.088Z,99074.06
2022-08-08T16:37:42.922Z,99083.19
2022-08-08T16:40:14.630Z,99075.19
2022-08-08T16:42:51.900Z,99080.97
2022-08-08T16:46:37.979Z,99079.03
2022-08-08T16:48:08.685Z,99071.84
2022-08-08T16:50:35.915Z,99082.91
2022-08-08T16:55:06.470Z,99084.84
2022-08-08T16:55:54.960Z,99083.22
2022-08-08T16:58:26.438Z,99087.94
2022-08-08T17:00:54.694Z,99089.03
2022-08-08T17:03:25.185Z,99090.97
2022-08-08T17:06:02.694Z,99085.69
2022-08-08T17:08:29.776Z,99092.06
2022-08-08T17:11:10.559Z,99094.84
2022-08-08T17:13:41.374Z,99095.13
2022-08-08T17:16:17.983Z,99091.53
2022-08-08T17:18:51.280Z,99094.31
2022-08-08T17:21:19.219Z,99099.00
2022-08-08T17:24:00.375Z,99097.34
2022-08-08T17:26:30.256Z,99100.41
2022-08-08T17:29:04.457Z,99105.94
2022-08-08T17:31:44.768Z,99108.72
2022-08-08T17:34:36.563Z,99107.06
2022-08-08T17:37:06.727Z,99106.22
2022-08-08T17:40:03.019Z,99102.63
2022-08-08T17:42:24.347Z,99106.50
2022-08-08T17:44:52.859Z,99102.38
2022-08-08T17:47:24.159Z,99107.91
2022-08-08T17:50:01.197Z,99109.56
2022-08-08T17:52:31.235Z,99113.44
2022-08-08T17:55:01.445Z,99113.69
2022-08-08T17:57:35.591Z,99122.00
2022-08-08T18:00:06.025Z,99112.88
2022-08-08T18:02:40.744Z,99110.94
2022-08-08T18:05:22.283Z,99115.06
2022-08-08T18:08:04.306Z,99112.31
2022-08-08T18:10:31.950Z,99118.94
2022-08-08T18:13:07.630Z,99125.31
2022-08-08T18:15:36.187Z,99126.41
2022-08-08T18:18:28.303Z,99134.16
2022-08-08T18:20:59.412Z,99147.97
2022-08-08T18:23:27.060Z,99143.59
2022-08-08T18:25:54.289Z,99156.28
2022-08-08T18:28:23.555Z,99158.25
2022-08-08T18:30:53.064Z,99154.66
2022-08-08T18:34:12.330Z,99171.25
2022-08-08T18:36:18.678Z,99173.19
2022-08-08T18:38:50.251Z,99178.72
2022-08-08T18:41:19.141Z,99175.13
2022-08-08T18:43:46.435Z,99171.78
2022-08-08T18:46:55.067Z,99173.72
2022-08-08T18:49:01.246Z,99175.69
2022-08-08T18:51:52.484Z,99185.91
2022-08-08T18:54:24.773Z,99183.41
2022-08-08T18:56:57.418Z,99183.41
2022-08-08T18:59:24.928Z,99180.91
2022-08-08T19:02:28.751Z,99189.22
2022-08-08T19:04:50.650Z,99187.84
2022-08-08T19:07:23.262Z,99186.50
2022-08-08T19:10:14.398Z,99187.84
2022-08-08T19:12:39.546Z,99187.84
2022-08-08T19:15:11.989Z,99194.47
2022-08-08T19:17:48.046Z,99196.97
2022-08-08T19:20:30.237Z,99191.44
2022-08-08T19:22:59.264Z,99191.97
2022-08-08T19:26:26.844Z,99187.59
2022-08-08T19:28:18.000Z,99186.44
2022-08-08T19:30:51.358Z,99188.94
2022-08-08T19:33:39.559Z,99184.25
2022-08-08T19:36:25.102Z,99187.84
2022-08-08T19:38:56.421Z,99191.72
2022-08-08T19:41:31.424Z,99193.94
2022-08-08T19:44:02.869Z,99196.72
2022-08-08T19:46:33.217Z,99189.78
2022-08-08T19:49:01.536Z,99197.25
2022-08-08T19:51:34.301Z,99194.47
2022-08-08T19:54:06.816Z,99194.22
2022-08-08T19:56:40.301Z,99204.44
2022-08-08T19:59:12.429Z,99198.09
2022-08-08T20:02:01.041Z,99207.22
2022-08-08T20:04:29.416Z,99206.38
2022-08-08T20:06:57.801Z,99205.53
2022-08-08T20:09:32.271Z,99195.59
2022-08-08T20:11:59.654Z,99203.03
2022-08-08T20:14:33.849Z,99208.56
2022-08-08T20:17:03.420Z,99206.94
2022-08-08T20:19:33.573Z,99202.25
2022-08-08T20:22:13.281Z,99208.88
2022-08-08T20:24:48.555Z,99205.00
2022-08-08T20:27:20.356Z,99206.13
2022-08-08T20:29:55.642Z,99204.19
2022-08-08T20:32:28.165Z,99212.47
2022-08-08T20:35:01.571Z,99211.66
2022-08-08T20:37:46.786Z,99212.75
2022-08-08T20:40:17.443Z,99213.84
2022-08-08T20:43:00.764Z,99207.47
2022-08-08T20:45:54.973Z,99213.84
2022-08-08T20:48:18.592Z,99213.31
2022-08-08T20:50:53.496Z,99213.31
2022-08-08T20:54:00.139Z,99218.84
2022-08-08T20:56:11.704Z,99211.66
2022-08-08T20:58:47.542Z,99210.81
2022-08-08T21:01:19.947Z,99211.66
2022-08-08T21:04:00.240Z,99222.13
2022-08-08T21:06:52.410Z,99218.53
2022-08-08T21:09:16.444Z,99217.75
2022-08-08T21:11:50.623Z,99225.19
2022-08-08T21:14:30.493Z,99221.03
2022-08-08T21:17:06.199Z,99221.03
2022-08-08T21:19:45.352Z,99220.50
2022-08-08T21:22:13.982Z,99218.84
2022-08-08T21:24:42.087Z,99215.25
2022-08-08T21:28:05.453Z,99227.13
2022-08-08T21:30:10.581Z,99227.13
2022-08-08T21:32:39.557Z,99226.28
2022-08-08T21:36:14.381Z,99223.53
2022-08-08T21:37:55.163Z,99214.41
2022-08-08T21:40:30.824Z,99225.72
2022-08-08T21:42:59.097Z,99224.94
2022-08-08T21:48:02.231Z,99222.97
2022-08-08T21:48:19.800Z,99229.63
2022-08-08T21:50:50.198Z,99226.88
2022-08-08T21:54:36.541Z,99227.13
2022-08-08T21:56:20.019Z,99225.47
2022-08-08T21:58:55.451Z,99221.06
2022-08-08T22:01:38.819Z,99219.41
2022-08-08T22:04:10.634Z,99219.41
2022-08-08T22:06:40.579Z,99217.72
2022-08-08T22:09:09.512Z,99216.06
2022-08-08T22:12:02.208Z,99219.66
2022-08-08T22:14:26.647Z,99215.81
2022-08-08T22:16:54.637Z,99219.94
2022-08-08T22:19:24.135Z,99213.31
2022-08-08T22:21:52.816Z,99219.13
2022-08-08T22:24:28.579Z,99221.06
2022-08-08T22:27:01.769Z,99217.72
2022-08-08T22:29:59.242Z,99219.38
2022-08-08T22:32:19.440Z,99216.06
2022-08-08T22:34:51.193Z,99216.06
2022-08-08T22:37:49.061Z,99223.50
2022-08-08T22:40:12.058Z,99225.47
2022-08-08T22:42:47.222Z,99223.81
2022-08-08T22:45:14.640Z,99228.25
2022-08-08T22:47:49.229Z,99223.81
2022-08-08T22:50:26.731Z,99223.81
2022-08-08T22:54:27.981Z,99228.50
2022-08-08T22:55:58.454Z,99221.31
2022-08-08T22:58:32.778Z,99228.78
2022-08-08T23:01:01.028Z,99229.88
2022-08-08T23:03:34.354Z,99224.34
2022-08-08T23:06:17.025Z,99222.72
2022-08-08T23:08:55.636Z,99224.34
2022-08-08T23:11:30.937Z,99232.09
2022-08-08T23:14:15.896Z,99237.63
2022-08-08T23:16:48.146Z,99239.81
2022-08-08T23:19:21.735Z,99233.19
2022-08-08T23:21:48.911Z,99235.97
2022-08-08T23:24:22.348Z,99235.97
2022-08-08T23:26:55.496Z,99241.50
2022-08-08T23:29:25.418Z,99235.13
2022-08-08T23:31:52.889Z,99240.66
2022-08-08T23:34:20.385Z,99239.81
2022-08-08T23:36:47.987Z,99242.88
2022-08-08T23:39:15.681Z,99239.81
2022-08-08T23:41:46.752Z,99240.13
2022-08-08T23:44:20.881Z,99243.72
2022-08-08T23:49:00.273Z,99228.50
2022-08-08T23:49:38.589Z,99226.00
2022-08-08T23:52:08.743Z,99222.44
2022-08-08T23:54:43.258Z,99219.38
2022-08-08T23:57:26.582Z,99214.13
